Latest Weather Observations for PORTABLE RFSNSW02

IDN60801

Issued at 10:12 am EST Monday 16 September 2019 (issued every 10 minutes, with the page automatically refreshed every 10 minutes)

About weather observations | Map of weather stations | Latest weather observations for NSW | Other Formats
Station Details ID: 250042 Name: PORTABLE RFSNSW02 Lat: -33.59 Lon: 151.01 Height: 169.0 m
Data from the previous 72 hours. | See also: Recent months for locations in New South Wales
Date/Time
EST
Temp
°C
App
Temp
°C
Dew
Point
°C
Rel
Hum
%
Delta-T
°C
Wind Press
QNH
hPa
Press
MSL
hPa
Rain since
9am
mm
Dir  Spd
km/h
Gust
km/h
Spd
kts
Gust
kts
16/10:00am 24.4 19.6 -2.7 16 11.9 NW 13 19 7 10 - - 0.0
16/09:50am 24.5 19.8 -2.1 17 11.8 NW 13 17 7 9 - - 0.0
16/09:40am 24.2 19.3 -0.8 19 11.4 WNW 15 17 8 9 - - 0.0
16/09:30am 24.2 19.7 -3.0 16 11.8 NW 11 15 6 8 - - 0.0
16/09:20am 24.1 19.7 -2.3 17 11.6 NNW 11 17 6 9 - - 0.0
16/09:10am 23.3 18.0 -3.3 17 11.4 NNW 15 19 8 10 - - 0.0
16/09:00am 23.2 18.2 -4.3 15 11.6 NNW 13 17 7 9 - - 0.0
16/08:50am 22.7 17.9 -2.8 18 11.0 NNW 13 19 7 10 - - 0.0
16/08:40am 22.5 18.3 -4.0 16 11.2 NNW 9 13 5 7 - - 0.0
16/08:30am 22.1 17.9 -3.5 18 10.8 NNW 9 13 5 7 - - 0.0
16/08:20am 21.7 17.4 -5.1 16 11.0 NNW 9 15 5 8 - - 0.0
16/08:10am 21.3 16.3 -4.5 17 10.6 NNW 13 19 7 10 - - 0.0
16/08:00am 21.1 15.9 -6.2 15 10.9 NNW 13 19 7 10 - - 0.0
16/07:50am 21.0 15.3 -7.3 14 11.0 NNW 15 20 8 11 - - 0.0
16/07:40am 20.8 15.6 -6.6 15 10.8 NNW 13 19 7 10 - - 0.0
16/07:30am 20.6 15.3 -7.5 14 10.8 NNW 13 17 7 9 - - 0.0
16/07:20am 20.3 14.6 -7.1 15 10.6 NNW 15 17 8 9 - - 0.0
16/07:10am 20.2 14.8 -8.1 14 10.7 NNW 13 15 7 8 - - 0.0
16/07:00am 20.0 14.2 -8.5 14 10.7 NNW 15 17 8 9 - - 0.0
16/06:50am 19.7 14.2 -9.4 13 10.7 NNW 13 15 7 8 - - 0.0
16/06:40am 19.6 13.7 -9.6 13 10.7 NNW 15 19 8 10 - - 0.0
16/06:30am 19.3 13.0 -9.6 13 10.5 NNW 17 19 9 10 - - 0.0
16/06:20am 19.0 12.7 -9.6 13 10.4 NNW 17 20 9 11 - - 0.0
16/06:10am 18.8 12.9 -9.4 14 10.3 N 15 17 8 9 - - 0.0
16/06:00am 18.8 13.7 -8.8 14 10.2 NNW 11 15 6 8 - - 0.0
16/05:50am 18.8 13.4 -8.8 14 10.2 NNW 13 15 7 8 - - 0.0
16/05:40am 18.7 13.3 -8.5 15 10.1 NNW 13 17 7 9 - - 0.0
16/05:30am 18.4 13.0 -8.7 15 10.0 NNW 13 15 7 8 - - 0.0
16/05:20am 17.9 12.9 -7.7 17 9.5 NNW 11 15 6 8 - - 0.0
16/05:10am 17.6 13.1 -7.0 18 9.3 NNW 9 13 5 7 - - 0.0
16/05:00am 17.4 12.9 -6.4 19 9.1 NNW 9 11 5 6 - - 0.0
16/04:50am 17.3 12.9 -5.7 20 8.9 NNW 9 11 5 6 - - 0.0
16/04:40am 17.3 12.9 -6.1 19 9.0 NNW 9 11 5 6 - - 0.0
16/04:30am 17.1 13.1 -5.4 21 8.7 NNW 7 9 4 5 - - 0.0
16/04:20am 17.0 13.0 -5.6 21 8.7 N 7 9 4 5 - - 0.0
16/04:10am 16.6 12.6 -5.7 21 8.5 N 7 9 4 5 - - 0.0
16/04:00am 16.7 13.0 -4.3 23 8.3 N 6 7 3 4 - - 0.0
16/03:50am 16.7 12.7 -5.3 21 8.5 N 7 7 4 4 - - 0.0
16/03:40am 16.7 12.8 -4.8 22 8.4 N 7 7 4 4 - - 0.0
16/03:30am 16.8 12.9 -4.9 22 8.5 N 7 7 4 4 - - 0.0
16/03:20am 16.7 12.8 -4.4 23 8.3 N 7 7 4 4 - - 0.0
16/03:10am 16.8 12.9 -4.5 23 8.4 NNW 7 9 4 5 - - 0.0
16/03:00am 16.9 13.1 -3.7 24 8.3 N 7 9 4 5 - - 0.0
16/02:50am 17.1 13.3 -3.6 24 8.3 N 7 9 4 5 - - 0.0
16/02:40am 17.4 13.6 -3.6 23 8.5 NNW 7 9 4 5 - - 0.0
16/02:30am 18.0 14.1 -4.7 21 9.0 NNW 7 9 4 5 - - 0.0
16/02:20am 18.0 14.1 -4.8 21 9.0 N 7 9 4 5 - - 0.0
16/02:10am 17.8 13.5 -4.4 21 8.9 NNW 9 11 5 6 - - 0.0
16/02:00am 18.1 14.3 -3.5 23 8.8 NNW 7 9 4 5 - - 0.0
16/01:50am 18.1 14.2 -4.7 21 9.1 NNW 7 9 4 5 - - 0.0
16/01:40am 17.6 13.7 -4.4 22 8.8 NNW 7 7 4 4 - - 0.0
16/01:30am 17.4 13.8 -3.4 24 8.4 NNW 6 7 3 4 - - 0.0
16/01:20am 17.7 14.2 -2.7 25 8.4 N 6 7 3 4 - - 0.0
16/01:10am 18.0 14.2 -3.7 22 8.8 N 7 7 4 4 - - 0.0
16/01:00am 17.6 13.9 -3.0 24 8.4 N 7 9 4 5 - - 0.0
16/12:50am 17.6 14.3 -1.6 27 8.1 N 6 7 3 4 - - 0.0
16/12:40am 18.1 14.9 -0.8 28 8.1 N 6 7 3 4 - - 0.0
16/12:30am 17.8 14.4 -1.7 26 8.2 NNW 6 6 3 3 - - 0.0
16/12:20am 17.1 14.3 -0.4 30 7.5 NNE 4 6 2 3 - - 0.0
16/12:10am 17.5 14.4 0.3 31 7.5 N 6 6 3 3 - - 0.0
16/12:00am 17.2 14.6 1.1 33 7.2 N 4 6 2 3 - - 0.0
 
Date/Time
EST
Temp
°C
App
Temp
°C
Dew
Point
°C
Rel
Hum
%
Delta-T
°C
Wind Press
QNH
hPa
Press
MSL
hPa
Rain since
9am
mm
Dir  Spd
km/h
Gust
km/h
Spd
kts
Gust
kts
15/11:50pm 17.3 14.8 1.8 35 7.0 N 4 6 2 3 - - 0.0
15/11:40pm 17.6 15.1 1.6 34 7.2 NNE 4 6 2 3 - - 0.0
15/11:30pm 17.8 15.3 1.8 34 7.3 N 4 6 2 3 - - 0.0
15/11:20pm 17.8 15.3 1.5 33 7.3 N 4 6 2 3 - - 0.0
15/11:10pm 17.8 14.9 1.7 34 7.3 N 6 6 3 3 - - 0.0
15/11:00pm 17.5 14.6 1.4 34 7.2 N 6 7 3 4 - - 0.0
15/10:50pm 17.7 15.5 3.4 38 6.7 N 4 6 2 3 - - 0.0
15/10:40pm 17.7 15.0 2.4 36 7.0 NNW 6 6 3 3 - - 0.0
15/10:30pm 17.4 14.7 2.9 38 6.7 NNW 6 6 3 3 - - 0.0
15/10:20pm 18.1 15.4 2.6 35 7.2 NNW 6 6 3 3 - - 0.0
15/10:10pm 17.9 16.0 2.7 36 7.0 NNW 2 4 1 2 - - 0.0
15/10:00pm 18.3 16.1 3.4 37 7.0 N 4 6 2 3 - - 0.0
15/09:50pm 18.4 16.2 3.6 37 7.0 NNE 4 6 2 3 - - 0.0
15/09:40pm 18.4 16.3 3.8 38 6.9 N 4 4 2 2 - - 0.0
15/09:30pm 18.8 16.7 3.7 36 7.2 N 4 4 2 2 - - 0.0
15/09:20pm 19.0 16.5 3.8 36 7.2 N 6 7 3 4 - - 0.0
15/09:10pm 19.0 16.6 4.2 37 7.1 NNW 6 6 3 3 - - 0.0
15/09:00pm 18.9 16.7 5.4 41 6.6 NNE 6 6 3 3 - - 0.0
15/08:50pm 18.9 16.8 5.8 42 6.5 NNE 6 7 3 4 - - 0.0
15/08:40pm 18.3 16.2 5.7 43 6.2 NNE 6 6 3 3 - - 0.0
15/08:30pm 18.4 16.5 6.5 45 6.0 NE 6 7 3 4 - - 0.0
15/08:20pm 18.4 16.9 6.7 46 5.9 ENE 4 6 2 3 - - 0.0
15/08:00pm 19.5 17.4 6.8 43 6.4 ENE 7 9 4 5 - - 0.0
15/07:50pm 19.8 17.8 7.1 43 6.5 ENE 7 9 4 5 - - 0.0
15/07:40pm 19.9 17.9 6.9 43 6.6 ENE 7 9 4 5 - - 0.0
15/07:30pm 20.1 17.7 7.1 43 6.7 E 9 11 5 6 - - 0.0
15/07:20pm 20.1 17.7 7.2 43 6.6 ENE 9 9 5 5 - - 0.0
15/07:00pm 20.3 18.1 7.7 44 6.5 ENE 9 11 5 6 - - 0.0
15/06:50pm 20.4 18.2 7.9 44 6.5 ENE 9 11 5 6 - - 0.0
15/06:40pm 20.6 18.4 7.8 43 6.7 ENE 9 11 5 6 - - 0.0
15/06:30pm 20.9 18.7 7.9 43 6.8 ENE 9 11 5 6 - - 0.0
15/06:20pm 21.1 19.3 7.8 42 6.9 ENE 7 9 4 5 - - 0.0
15/06:10pm 21.6 19.7 7.6 40 7.3 ENE 7 9 4 5 - - 0.0
15/06:00pm 21.9 20.0 7.7 40 7.4 ENE 7 9 4 5 - - 0.0
15/05:50pm 22.3 20.4 7.6 38 7.7 ENE 7 9 4 5 - - 0.0
15/05:40pm 22.8 20.6 7.7 38 8.0 ENE 9 9 5 5 - - 0.0
15/05:30pm 23.4 21.6 8.0 37 8.2 ENE 7 9 4 5 - - 0.0
15/05:20pm 24.0 22.2 7.9 35 8.6 ENE 7 9 4 5 - - 0.0
15/05:10pm 24.4 22.6 7.9 35 8.8 ENE 7 9 4 5 - - 0.0
15/05:00pm 24.8 22.4 7.1 32 9.3 ENE 9 11 5 6 - - 0.0
15/04:50pm 25.3 22.7 6.2 29 9.9 ENE 9 11 5 6 - - 0.0
15/04:40pm 26.0 23.3 5.5 27 10.6 ENE 9 11 5 6 - - 0.0
15/04:30pm 26.5 23.4 3.8 23 11.4 ENE 9 11 5 6 - - 0.0
15/04:20pm 26.9 24.1 2.9 21 11.9 ENE 7 7 4 4 - - 0.0
15/04:10pm 26.6 23.9 3.8 23 11.5 NE 7 11 4 6 - - 0.0
15/04:00pm 26.2 23.0 1.0 19 12.0 NNE 7 9 4 5 - - 0.0
15/03:50pm 26.9 23.7 0.8 18 12.5 NNE 7 9 4 5 - - 0.0
15/03:40pm 27.0 24.0 1.9 19 12.2 NE 7 11 4 6 - - 0.0
15/03:30pm 27.1 23.9 2.8 21 12.0 ENE 9 11 5 6 - - 0.0
15/03:20pm 27.3 24.5 2.2 19 12.3 NE 6 9 3 5 - - 0.0
15/03:10pm 27.2 24.2 1.7 19 12.4 NE 7 9 4 5 - - 0.0
15/03:00pm 27.5 24.4 0.2 17 12.9 NNW 6 9 3 5 - - 0.0
15/02:50pm 27.5 24.4 0.3 17 12.9 NNE 6 7 3 4 - - 0.0
15/02:40pm 27.9 25.4 1.8 18 12.8 E 4 6 2 3 - - 0.0
15/02:30pm 28.2 25.5 0.6 16 13.3 NNE 4 6 2 3 - - 0.0
15/02:20pm 27.7 24.5 0.8 17 12.9 NNW 7 13 4 7 - - 0.0
15/02:10pm 27.6 24.7 1.5 18 12.7 N 6 9 3 5 - - 0.0
15/02:00pm 27.0 24.3 2.9 21 12.0 ESE 6 9 3 5 - - 0.0
15/01:50pm 27.1 23.9 -0.4 16 12.9 SE 6 7 3 4 - - 0.0
15/01:40pm 27.3 25.2 3.7 22 11.9 SE 4 4 2 2 - - 0.0
15/01:30pm 27.0 24.0 0.6 18 12.6 ENE 6 9 3 5 - - 0.0
15/01:20pm 26.6 23.6 0.6 18 12.3 E 6 9 3 5 - - 0.0
15/01:10pm 26.6 23.6 0.8 18 12.3 ESE 6 9 3 5 - - 0.0
15/01:00pm 26.1 22.6 -1.2 16 12.5 ESE 7 11 4 6 - - 0.0
15/12:50pm 26.0 22.9 0.4 18 12.1 ESE 6 9 3 5 - - 0.0
15/12:40pm 26.3 23.0 -1.5 16 12.7 W 6 9 3 5 - - 0.0
15/12:30pm 26.0 23.2 1.9 21 11.7 E 6 7 3 4 - - 0.0
15/12:20pm 26.1 22.8 -1.2 16 12.5 NW 6 9 3 5 - - 0.0
15/12:10pm 26.4 24.0 2.2 21 11.8 N 4 7 2 4 - - 0.0
15/12:00pm 25.2 22.3 1.2 21 11.4 W 6 11 3 6 - - 0.0
15/11:50am 25.3 22.0 0.1 19 11.7 W 7 11 4 6 - - 0.0
15/11:40am 25.4 22.6 -0.1 18 11.8 W 4 6 2 3 - - 0.0
15/11:30am 25.0 20.9 -3.3 15 12.3 NNW 9 11 5 6 - - 0.0
15/11:20am 24.6 21.8 3.4 25 10.4 NNW 7 11 4 6 - - 0.0
15/11:10am 24.2 21.2 2.2 23 10.6 WNW 7 11 4 6 - - 0.0
15/11:00am 23.8 21.4 4.4 28 9.7 N 6 9 3 5 - - 0.0
15/10:50am 23.6 21.0 4.2 28 9.6 NNW 7 11 4 6 - - 0.0
15/10:40am 23.1 20.3 3.2 27 9.7 NW 7 11 4 6 - - 0.0
15/10:30am 22.4 20.3 6.8 36 8.1 NW 7 11 4 6 - - 0.0
15/10:20am 22.0 19.7 5.6 34 8.3 NW 7 9 4 5 - - 0.0
15/10:10am 21.4 18.7 3.6 31 8.6 NNW 7 11 4 6 - - 0.0
15/10:00am 20.8 18.5 5.8 37 7.5 NNW 7 9 4 5 - - 0.0
15/09:50am 20.2 17.9 5.9 39 7.2 NNW 7 9 4 5 - - 0.0
15/09:40am 19.7 17.6 6.6 42 6.6 NW 7 13 4 7 - - 0.0
15/09:30am 18.9 16.8 6.8 45 6.1 NW 7 11 4 6 - - 0.0
15/09:20am 18.4 16.1 5.9 44 6.2 NW 7 13 4 7 - - 0.0
15/09:10am 17.6 15.6 7.0 50 5.3 NW 7 9 4 5 - - 0.0
15/09:00am 16.7 14.6 6.8 52 4.9 NNW 7 9 4 5 - - 0.0
15/08:50am 16.1 14.0 6.7 53 4.7 NNW 7 11 4 6 - - 0.0
15/08:40am 15.5 13.7 7.1 57 4.2 NW 6 7 3 4 - - 0.0
15/08:30am 15.1 13.5 7.8 61 3.7 NW 6 7 3 4 - - 0.0
15/08:20am 14.6 13.0 8.1 65 3.3 NW 6 7 3 4 - - 0.0
15/08:10am 14.1 12.3 7.8 66 3.1 NW 7 9 4 5 - - 0.0
15/08:00am 13.5 11.5 7.1 65 3.1 NNW 7 11 4 6 - - 0.0
15/07:50am 13.0 11.2 7.9 71 2.5 NNW 7 9 4 5 - - 0.0
15/07:40am 12.6 10.9 8.5 76 2.1 NNW 7 9 4 5 - - 0.0
15/07:30am 12.3 10.7 8.6 78 1.9 NW 7 7 4 4 - - 0.0
15/07:20am 12.1 10.6 8.6 79 1.8 NW 6 7 3 4 - - 0.0
15/07:10am 11.7 10.2 8.4 80 1.6 NNW 6 7 3 4 - - 0.0
15/07:00am 11.1 9.6 8.3 83 1.4 NNW 6 7 3 4 - - 0.0
15/06:50am 10.4 8.9 8.3 87 1.0 NNW 6 7 3 4 - - 0.0
15/06:40am 9.7 8.2 8.6 93 0.5 N 6 7 3 4 - - 0.0
15/06:30am 9.6 8.2 8.8 95 0.4 N 6 7 3 4 - - 0.0
15/06:20am 9.8 8.4 8.9 94 0.4 NW 6 7 3 4 - - 0.0
15/06:10am 9.9 8.3 8.8 93 0.5 NNW 7 9 4 5 - - 0.0
15/06:00am 9.9 8.3 8.9 93 0.5 N 7 9 4 5 - - 0.0
15/05:50am 10.0 8.5 9.0 93 0.5 NNW 7 11 4 6 - - 0.0
15/05:40am 10.1 8.2 9.2 94 0.5 NNW 9 9 5 5 - - 0.0
15/05:30am 10.2 8.4 9.3 94 0.5 NNW 9 11 5 6 - - 0.0
15/05:20am 10.2 8.4 9.3 94 0.5 N 9 13 5 7 - - 0.0
15/05:10am 10.0 8.2 9.3 95 0.4 NNW 9 11 5 6 - - 0.0
15/05:00am 10.2 8.8 9.4 95 0.4 NNW 7 9 4 5 - - 0.0
15/04:50am 10.3 8.9 9.5 95 0.4 NNW 7 9 4 5 - - 0.0
15/04:40am 10.5 8.7 9.5 93 0.5 NNW 9 11 5 6 - - 0.0
15/04:30am 10.4 8.6 9.4 93 0.5 N 9 11 5 6 - - 0.0
15/04:20am 10.3 8.5 9.4 94 0.5 N 9 11 5 6 - - 0.0
15/04:10am 10.1 8.6 9.3 95 0.4 N 7 9 4 5 - - 0.0
15/04:00am 9.9 8.4 9.2 95 0.3 N 7 9 4 5 - - 0.0
15/03:50am 9.7 8.2 9.1 96 0.3 N 7 11 4 6 - - 0.0
15/03:40am 9.4 7.9 9.0 97 0.2 N 7 9 4 5 - - 0.0
15/03:30am 9.5 7.9 8.9 96 0.3 N 7 7 4 4 - - 0.0
15/03:20am 9.6 8.1 9.1 97 0.2 N 7 7 4 4 - - 0.0
15/03:00am 9.4 8.0 9.0 97 0.2 N 6 7 3 4 - - 0.0
15/02:50am 9.5 8.1 9.0 97 0.2 NNE 6 7 3 4 - - 0.0
15/02:40am 9.4 8.0 9.0 97 0.2 NNE 6 7 3 4 - - 0.0
15/02:30am 9.3 7.9 8.9 97 0.2 N 6 6 3 3 - - 0.0
15/02:20am 9.2 7.6 8.7 97 0.2 N 7 7 4 4 - - 0.0
15/02:10am 9.2 7.8 8.9 98 0.1 N 6 7 3 4 - - 0.0
15/02:00am 9.0 7.6 8.8 99 0.1 N 6 6 3 3 - - 0.0
15/01:50am 8.9 7.3 8.7 99 0.1 N 7 9 4 5 - - 0.0
15/01:40am 8.2 6.6 8.1 99 0.0 N 6 7 3 4 - - 0.0
15/01:30am 8.7 7.2 8.4 98 0.1 N 6 7 3 4 - - 0.0
15/01:20am 8.4 6.9 8.4 100 0.0 N 6 6 3 3 - - 0.0
15/01:10am 8.6 7.5 8.5 99 0.0 N 4 6 2 3 - - 0.0
15/01:00am 8.5 7.7 8.3 99 0.1 NE 2 4 1 2 - - 0.0
15/12:50am 9.3 8.3 8.9 97 0.2 N 4 6 2 3 - - 0.0
15/12:40am 9.4 8.5 9.1 98 0.1 N 4 4 2 2 - - 0.0
15/12:30am 9.1 8.5 8.9 99 0.1 NE 2 2 1 1 - - 0.0
15/12:20am 8.9 7.9 8.7 99 0.1 NNE 4 4 2 2 - - 0.0
15/12:10am 9.1 8.0 8.6 97 0.2 NNE 4 4 2 2 - - 0.0
15/12:00am 9.5 8.5 8.9 96 0.3 N 4 6 2 3 - - 0.0
 
Date/Time
EST
Temp
°C
App
Temp
°C
Dew
Point
°C
Rel
Hum
%
Delta-T
°C
Wind Press
QNH
hPa
Press
MSL
hPa
Rain since
9am
mm
Dir  Spd
km/h
Gust
km/h
Spd
kts
Gust
kts
14/11:50pm 9.6 8.6 8.9 95 0.3 N 4 6 2 3 - - 0.0
14/11:40pm 10.1 9.1 9.0 93 0.5 N 4 6 2 3 - - 0.0
14/11:30pm 10.2 9.3 9.2 93 0.5 NNW 4 4 2 2 - - 0.0
14/11:20pm 10.4 9.5 9.2 92 0.6 NNW 4 4 2 2 - - 0.0
14/11:10pm 10.2 9.7 9.2 93 0.5 NNW 2 4 1 2 - - 0.0
14/11:00pm 10.2 9.7 9.2 93 0.5 N 2 4 1 2 - - 0.0
14/10:50pm 10.6 9.7 9.3 92 0.7 NNW 4 4 2 2 - - 0.0
14/10:40pm 10.5 9.6 9.3 92 0.6 N 4 4 2 2 - - 0.0
14/10:30pm 10.3 9.8 9.3 93 0.5 NNW 2 4 1 2 - - 0.0
14/10:20pm 10.3 9.8 9.2 93 0.6 NNW 2 2 1 1 - - 0.0
14/10:10pm 10.4 9.5 9.3 93 0.6 NNW 4 4 2 2 - - 0.0
14/10:00pm 10.4 9.5 9.3 93 0.6 NNW 4 4 2 2 - - 0.0
14/09:50pm 10.5 9.6 9.2 92 0.7 NNW 4 4 2 2 - - 0.0
14/09:40pm 10.4 9.9 9.2 92 0.6 NNW 2 2 1 1 - - 0.0
14/09:30pm 10.5 10.0 9.3 92 0.6 N 2 2 1 1 - - 0.0
14/09:20pm 10.6 10.1 9.3 92 0.7 N 2 2 1 1 - - 0.0
14/09:10pm 10.6 10.5 9.3 92 0.7 CALM 0 2 0 1 - - 0.0
14/09:00pm 10.5 10.0 9.3 92 0.6 ESE 2 4 1 2 - - 0.0
14/08:50pm 10.4 9.2 9.5 94 0.5 SE 6 6 3 3 - - 0.0
14/08:40pm 10.6 9.7 9.2 91 0.7 SE 4 6 2 3 - - 0.0
14/08:30pm 10.7 9.8 9.3 91 0.7 SE 4 6 2 3 - - 0.0
14/08:20pm 11.1 10.6 9.3 89 0.9 ESE 2 4 1 2 - - 0.0
14/08:10pm 10.9 10.0 9.3 90 0.8 E 4 4 2 2 - - 0.0
14/08:00pm 10.9 10.4 9.3 90 0.8 ESE 2 4 1 2 - - 0.0
14/07:50pm 11.1 10.3 9.7 91 0.7 SE 4 4 2 2 - - 0.0
14/07:40pm 11.4 10.9 9.5 88 1.0 ESE 2 4 1 2 - - 0.0
14/07:30pm 11.5 11.1 9.6 88 1.0 ESE 2 4 1 2 - - 0.0
14/07:20pm 11.7 11.3 9.7 87 1.0 E 2 4 1 2 - - 0.0
14/07:10pm 12.1 11.3 9.7 85 1.2 E 4 4 2 2 - - 0.0
14/07:00pm 12.3 11.4 9.3 82 1.5 ENE 4 4 2 2 - - 0.0
14/06:50pm 12.5 11.6 9.3 81 1.6 E 4 4 2 2 - - 0.0
14/06:40pm 12.7 11.8 9.4 80 1.7 ENE 4 4 2 2 - - 0.0
14/06:30pm 13.1 12.2 9.3 78 1.9 E 4 6 2 3 - - 0.0
14/06:20pm 13.3 12.4 9.2 76 2.1 E 4 6 2 3 - - 0.0
14/06:10pm 13.6 12.3 9.3 75 2.2 E 6 7 3 4 - - 0.0
14/06:00pm 14.0 12.7 9.3 73 2.4 ESE 6 7 3 4 - - 0.0
14/05:50pm 14.4 12.9 9.3 71 2.6 ESE 7 9 4 5 - - 0.0
14/05:40pm 14.8 13.4 9.4 70 2.8 ESE 7 9 4 5 - - 0.0
14/05:30pm 15.2 13.4 9.4 68 3.0 ESE 9 11 5 6 - - 0.0
14/05:20pm 15.7 14.3 9.4 66 3.3 E 7 11 4 6 - - 0.0
14/05:10pm 15.9 13.7 9.5 66 3.3 ESE 11 17 6 9 - - 0.0
14/05:00pm 16.4 13.8 9.5 63 3.6 E 13 19 7 10 - - 0.0
14/04:50pm 16.8 14.7 9.7 63 3.7 E 11 15 6 8 - - 0.0
14/04:40pm 17.1 14.6 9.8 62 3.9 E 13 19 7 10 - - 0.0
14/04:30pm 17.5 15.5 10.3 62 3.9 - 11 15 6 8 - - 0.0
14/04:20pm 17.9 16.0 10.6 62 3.9 - 11 15 6 8 - - 0.0
14/04:10pm 18.1 16.2 10.5 61 4.1 E 11 17 6 9 - - 0.0
14/04:00pm 18.1 15.4 10.4 60 4.2 E 15 19 8 10 - - 0.0
14/03:50pm 18.4 16.2 10.9 61 4.1 ENE 13 17 7 9 - - 0.0
14/03:40pm 18.7 16.9 11.0 61 4.2 ENE 11 13 6 7 - - 0.0
14/03:30pm 19.0 17.7 11.2 60 4.3 E 9 13 5 7 - - 0.0
14/03:20pm 19.2 17.9 11.3 60 4.4 E 9 11 5 6 - - 0.0
14/03:10pm 19.1 17.1 11.6 62 4.2 E 13 17 7 9 - - 0.0
14/03:00pm 19.1 17.4 11.1 59 4.4 E 11 15 6 8 - - 0.0
14/02:50pm 19.2 17.2 11.4 60 4.3 E 13 17 7 9 - - 0.0
14/02:40pm 19.4 17.4 11.5 60 4.4 E 13 17 7 9 - - 0.0
14/02:30pm 19.6 17.7 11.9 61 4.3 ENE 13 17 7 9 - - 0.0
14/02:20pm 19.6 17.7 11.7 60 4.4 ENE 13 15 7 8 - - 0.0
14/02:10pm 19.9 18.0 11.8 59 4.5 E 13 22 7 12 - - 0.0
14/02:00pm 19.8 17.5 11.6 59 4.6 ESE 15 20 8 11 - - 0.0
14/01:50pm 19.9 17.3 11.9 60 4.5 ESE 17 24 9 13 - - 0.0
14/01:40pm 20.8 19.5 11.2 54 5.3 ENE 9 15 5 8 - - 0.0
14/01:30pm 20.8 19.4 10.8 52 5.5 ENE 9 13 5 7 - - 0.0
14/01:20pm 20.5 19.0 11.9 57 4.8 ENE 11 13 6 7 - - 0.0
14/01:10pm 21.1 19.9 11.6 54 5.3 ENE 9 15 5 8 - - 0.0
14/01:00pm 21.1 20.2 11.4 54 5.4 ENE 7 13 4 7 - - 0.0
14/12:50pm 20.4 19.4 11.1 55 5.1 E 7 11 4 6 - - 0.0
14/12:40pm 20.5 18.4 9.7 50 5.8 E 11 13 6 7 - - 0.0
14/12:30pm 21.2 19.8 11.0 52 5.7 E 9 17 5 9 - - 0.0
14/12:20pm 21.0 19.5 9.2 46 6.3 SE 7 9 4 5 - - 0.0
14/12:10pm 20.6 19.0 10.1 51 5.7 SE 9 11 5 6 - - 0.0
14/12:00pm 21.1 20.1 10.4 50 5.9 E 6 9 3 5 - - 0.0
14/11:50am 21.0 19.9 10.1 49 5.9 WNW 6 9 3 5 - - 0.0
14/11:40am 19.5 18.6 10.5 56 4.9 ENE 6 7 3 4 - - 0.0
14/11:30am 19.1 17.9 9.4 53 5.2 SE 6 9 3 5 - - 0.0
14/11:20am 20.2 19.0 10.3 53 5.4 SSE 7 11 4 6 - - 0.0
14/11:10am 20.8 19.4 9.0 46 6.3 NW 6 7 3 4 - - 0.0
14/11:00am 19.9 18.5 8.9 49 5.8 S 6 7 3 4 - - 0.0
14/10:50am 19.2 17.7 9.1 52 5.3 SSE 7 11 4 6 - - 0.0
14/10:40am 18.2 16.7 9.2 55 4.7 SSE 7 9 4 5 - - 0.0
14/10:30am 17.9 16.5 9.4 57 4.5 S 7 9 4 5 - - 0.0
14/10:20am 18.5 17.2 9.9 57 4.6 S 7 9 4 5 - - 0.0
14/10:10am 19.6 18.3 9.2 51 5.5 S 6 11 3 6 - - 0.0
14/10:00am 19.2 17.8 9.7 54 5.1 S 7 13 4 7 - - 0.0
14/09:50am 19.1 18.1 10.2 56 4.8 S 6 7 3 4 - - 0.0
14/09:40am 19.0 16.9 8.3 50 5.6 S 9 13 5 7 - - 0.0
14/09:30am 18.6 15.8 8.4 51 5.3 SSE 13 17 7 9 - - 0.0
14/09:20am 18.6 15.8 5.2 41 6.6 SSE 9 13 5 7 - - 0.0
14/09:10am 18.1 14.6 5.5 43 6.2 SSE 13 19 7 10 - - 0.0
14/09:00am 18.1 14.2 5.4 43 6.2 SSE 15 19 8 10 - - 0.0
14/08:50am 18.0 15.2 5.0 42 6.3 SSE 9 11 5 6 - - 0.0
14/08:40am 17.4 13.3 4.2 41 6.3 SSE 15 19 8 10 - - 0.0
14/08:30am 17.1 12.9 3.9 41 6.2 SSE 15 20 8 11 - - 0.0
14/08:20am 16.9 13.2 4.5 43 5.9 SSE 13 15 7 8 - - 0.0
14/08:10am 16.6 13.3 4.6 45 5.7 SSE 11 17 6 9 - - 0.0
14/08:00am 16.2 12.5 4.3 45 5.6 SSE 13 15 7 8 - - 0.0
14/07:50am 15.9 12.2 4.6 47 5.3 SSE 13 15 7 8 - - 0.0
14/07:40am 15.5 12.3 5.0 49 5.0 SE 11 13 6 7 - - 0.0
14/07:30am 15.0 11.7 4.4 49 5.0 SE 11 15 6 8 - - 0.0
14/07:20am 14.4 11.0 4.2 50 4.7 SE 11 11 6 6 - - 0.0
14/07:10am 13.7 10.4 2.7 47 4.9 SE 9 11 5 6 - - 0.0
14/07:00am 13.0 9.5 3.6 53 4.3 SE 11 13 6 7 - - 0.0
14/06:50am 12.2 8.3 3.6 55 3.9 SSE 13 15 7 8 - - 0.0
14/06:40am 11.1 7.9 3.3 58 3.5 SSE 9 11 5 6 - - 0.0
14/06:30am 10.6 7.9 3.9 63 3.0 SSE 7 7 4 4 - - 0.0
14/06:20am 10.8 8.8 4.2 64 3.0 S 4 6 2 3 - - 0.0
14/06:10am 10.7 9.1 4.6 66 2.8 S 2 2 1 1 - - 0.0
14/06:00am 10.8 9.3 4.8 66 2.7 SW 2 2 1 1 - - 0.0
14/05:50am 10.6 8.9 4.2 64 2.9 S 2 2 1 1 - - 0.0
14/05:40am 9.6 8.0 4.5 70 2.3 SSW 2 4 1 2 - - 0.0
14/05:30am 9.0 7.5 6.6 85 1.1 ESE 4 6 2 3 - - 0.0
14/05:20am 8.4 6.5 6.7 89 0.8 E 6 7 3 4 - - 0.0
14/05:10am 10.3 9.2 6.7 78 1.7 WNW 2 6 1 3 - - 0.0
14/05:00am 10.6 9.4 6.3 75 2.0 W 2 4 1 2 - - 0.0
14/04:50am 11.3 9.7 6.3 71 2.4 W 4 4 2 2 - - 0.0
14/04:40am 11.8 9.7 5.7 66 2.9 W 6 6 3 3 - - 0.0
14/04:30am 11.2 9.4 5.5 68 2.7 WSW 4 6 2 3 - - 0.0
14/04:20am 10.8 9.4 5.7 71 2.4 WSW 2 4 1 2 - - 0.0
14/04:10am 11.6 10.2 5.6 66 2.8 WSW 2 4 1 2 - - 0.0
14/04:00am 12.1 10.3 5.2 62 3.2 W 4 6 2 3 - - 0.0
14/03:50am 12.1 10.0 3.7 56 3.8 SSW 4 6 2 3 - - 0.0
14/03:40am 11.9 10.2 5.7 66 2.9 SSW 4 6 2 3 - - 0.0
14/03:30am 11.5 10.3 6.6 72 2.3 SW 2 6 1 3 - - 0.0
14/03:20am 11.7 11.0 7.0 73 2.3 CALM 0 2 0 1 - - 0.0
14/03:10am 11.0 9.8 6.6 74 2.1 SSE 2 4 1 2 - - 0.0
14/03:00am 10.0 8.8 8.2 88 0.9 S 4 4 2 2 - - 0.0
14/02:50am 9.9 8.5 7.4 84 1.2 W 4 4 2 2 - - 0.0
14/02:40am 9.1 8.4 8.7 97 0.2 S 2 2 1 1 - - 0.0
14/02:30am 10.9 10.3 9.0 88 1.0 N 2 6 1 3 - - 0.0
14/02:20am 11.4 10.1 7.6 77 1.9 NNW 4 6 2 3 - - 0.0
14/02:10am 11.6 10.6 8.7 82 1.5 N 4 4 2 2 - - 0.0
14/02:00am 12.0 11.0 8.9 81 1.6 N 4 6 2 3 - - 0.0
14/01:50am 12.1 10.8 9.2 82 1.5 NNW 6 6 3 3 - - 0.0
14/01:40am 12.2 11.0 9.7 85 1.3 N 6 6 3 3 - - 0.0
14/01:30am 12.3 11.3 10.2 87 1.1 NNW 6 7 3 4 - - 0.0
14/01:20am 12.3 11.3 10.4 88 1.0 NNW 6 6 3 3 - - 0.0
14/01:10am 12.0 11.1 10.6 91 0.7 N 6 7 3 4 - - 0.0
14/01:00am 11.7 10.9 10.9 95 0.4 N 6 6 3 3 - - 0.0
14/12:50am 11.9 11.1 11.2 95 0.4 NNW 6 7 3 4 - - 0.0
14/12:40am 11.5 11.2 11.4 99 0.1 NNW 4 4 2 2 - - 0.0
14/12:30am 11.3 11.3 11.3 100 0.0 N 2 4 1 2 - - 0.0
14/12:20am 11.0 11.0 11.0 100 0.0 WNW 2 2 1 1 - - 0.0
14/12:10am 10.8 10.6 10.6 99 0.1 SW 2 4 1 2 - - 0.0
14/12:00am 11.2 11.2 11.0 99 0.1 ENE 2 4 1 2 - - 0.0
 
Date/Time
EST
Temp
°C
App
Temp
°C
Dew
Point
°C
Rel
Hum
%
Delta-T
°C
Wind Press
QNH
hPa
Press
MSL
hPa
Rain since
9am
mm
Dir  Spd
km/h
Gust
km/h
Spd
kts
Gust
kts
13/11:50pm 11.3 10.9 11.0 98 0.2 NNE 4 6 2 3 - - 0.0
13/11:40pm 11.5 11.1 11.1 97 0.2 NNE 4 6 2 3 - - 0.0
13/11:30pm 11.8 11.4 11.0 95 0.4 NNE 4 6 2 3 - - 0.0
13/11:20pm 12.2 11.4 11.2 94 0.5 N 6 7 3 4 - - 0.0
13/11:10pm 12.2 11.5 11.3 94 0.5 NNE 6 7 3 4 - - 0.0
13/11:00pm 12.3 11.6 11.3 94 0.5 NNE 6 7 3 4 - - 0.0
13/10:50pm 12.5 12.2 11.4 93 0.6 NE 4 6 2 3 - - 0.0
13/10:40pm 12.5 12.2 11.3 92 0.6 E 4 6 2 3 - - 0.0
13/10:30pm 13.0 12.7 11.5 91 0.8 E 4 6 2 3 - - 0.0
13/10:20pm 13.4 12.7 11.5 88 1.0 NNE 6 7 3 4 - - 0.0
13/10:10pm 13.4 12.5 11.5 88 1.0 N 7 9 4 5 - - 0.0
13/10:00pm 13.4 12.7 11.4 88 1.1 N 6 9 3 5 - - 0.0
13/09:50pm 13.4 12.1 11.3 87 1.1 NNE 9 13 5 7 - - 0.0
13/09:40pm 13.2 12.3 11.3 88 1.0 NNE 7 9 4 5 - - 0.0
13/09:30pm 13.2 12.5 11.3 88 1.0 NE 6 7 3 4 - - 0.0
13/09:20pm 13.2 12.5 11.3 88 1.0 NE 6 9 3 5 - - 0.0
13/09:10pm 13.2 12.5 11.3 88 1.0 ENE 6 7 3 4 - - 0.0
13/09:00pm 13.1 12.4 11.3 89 1.0 ENE 6 9 3 5 - - 0.0
13/08:50pm 13.2 12.5 11.3 88 1.0 NE 6 7 3 4 - - 0.0
13/08:40pm 13.0 12.7 11.3 89 0.9 NNE 4 6 2 3 - - 0.0
13/08:30pm 13.0 12.7 11.3 89 0.9 NNE 4 6 2 3 - - 0.0
13/08:20pm 13.2 12.9 11.4 89 1.0 NNE 4 6 2 3 - - 0.0
13/08:10pm 13.4 12.7 11.4 88 1.1 NNE 6 7 3 4 - - 0.0
13/08:00pm 13.4 12.5 11.3 87 1.1 NE 7 9 4 5 - - 0.0
13/07:50pm 13.4 12.7 11.3 87 1.1 NE 6 7 3 4 - - 0.0
13/07:40pm 13.6 12.9 11.4 86 1.2 ENE 6 9 3 5 - - 0.0
13/07:30pm 13.8 12.6 11.5 86 1.2 ENE 9 13 5 7 - - 0.0
13/07:20pm 13.9 12.3 11.4 85 1.3 ENE 11 13 6 7 - - 0.0
13/07:10pm 13.9 12.3 11.4 85 1.3 E 11 15 6 8 - - 0.0
13/07:00pm 14.0 12.0 11.5 85 1.3 E 13 15 7 8 - - 0.0
13/06:50pm 14.1 12.1 11.5 84 1.4 E 13 15 7 8 - - 0.0
13/06:40pm 14.3 12.3 11.5 83 1.5 E 13 15 7 8 - - 0.0
13/06:30pm 14.4 12.4 11.5 83 1.6 E 13 15 7 8 - - 0.0
13/06:20pm 14.5 12.9 11.6 83 1.6 E 11 15 6 8 - - 0.0
13/06:10pm 14.7 12.7 11.6 82 1.7 ENE 13 17 7 9 - - 0.0
13/06:00pm 14.8 12.9 11.7 82 1.7 ENE 13 17 7 9 - - 0.0
13/05:50pm 15.1 12.8 11.6 79 1.9 E 15 19 8 10 - - 0.0
13/05:40pm 15.4 13.5 11.7 78 2.0 E 13 15 7 8 - - 0.0
13/05:30pm 15.8 13.5 11.7 76 2.2 E 15 19 8 10 - - 0.0
13/05:20pm 16.2 13.5 11.6 74 2.5 E 17 19 9 10 - - 0.0
13/05:10pm 16.7 14.4 11.7 72 2.7 E 15 19 8 10 - - 0.0
13/05:00pm 17.1 14.4 11.7 70 3.0 E 17 19 9 10 - - 0.0
13/04:50pm 17.6 15.0 11.9 69 3.2 E 17 19 9 10 - - 0.0
13/04:40pm 18.2 16.8 12.1 67 3.4 E 11 17 6 9 - - 0.0
13/04:30pm 18.6 17.2 12.1 66 3.6 ENE 11 13 6 7 - - 0.0
13/04:20pm 18.8 17.0 12.2 65 3.7 ENE 13 17 7 9 - - 0.0
13/04:10pm 19.1 17.3 12.1 64 3.9 ENE 13 17 7 9 - - 0.0
13/04:00pm 19.2 16.9 11.9 62 4.1 E 15 20 8 11 - - 0.0
13/03:50pm 19.9 18.5 12.2 61 4.3 ENE 11 17 6 9 - - 0.0
13/03:40pm 19.9 18.1 12.0 60 4.4 ENE 13 13 7 7 - - 0.0
13/03:30pm 20.5 19.0 11.9 57 4.8 ENE 11 15 6 8 - - 0.0
13/03:20pm 21.3 19.8 12.0 55 5.3 NE 11 15 6 8 - - 0.0
13/03:10pm 21.7 20.6 11.9 53 5.5 NNE 9 11 5 6 - - 0.0
13/03:00pm 21.9 20.6 11.4 51 5.9 ENE 9 13 5 7 - - 0.0
13/02:50pm 22.2 21.4 11.6 51 6.0 ENE 7 11 4 6 - - 0.0
13/02:40pm 22.5 21.4 9.9 44 6.9 ENE 6 9 3 5 - - 0.0
13/02:30pm 22.2 21.4 10.9 48 6.3 NNE 6 7 3 4 - - 0.0
13/02:20pm 21.8 20.7 10.5 48 6.2 NW 7 11 4 6 - - 0.0
13/02:10pm 21.9 20.2 9.9 46 6.5 NE 9 13 5 7 - - 0.0
13/02:00pm 22.0 21.0 11.1 50 6.1 NNE 7 11 4 6 - - 0.0
13/01:50pm 21.5 20.8 11.3 52 5.7 E 6 9 3 5 - - 0.0
13/01:40pm 21.1 20.0 10.7 51 5.7 SE 7 9 4 5 - - 0.0
13/01:30pm 21.1 20.1 11.0 52 5.6 SSE 7 9 4 5 - - 0.0
13/01:20pm 20.8 20.0 11.7 56 5.1 SE 7 9 4 5 - - 0.0
13/01:10pm 20.5 19.5 11.1 54 5.2 ESE 7 11 4 6 - - 0.0
13/01:00pm 20.9 20.1 11.8 56 5.1 E 7 9 4 5 - - 0.0
13/12:50pm 20.0 19.3 11.3 57 4.8 SE 6 7 3 4 - - 0.0
13/12:40pm 18.8 18.2 11.6 63 4.0 SE 6 9 3 5 - - 0.0
13/12:30pm 19.0 18.3 12.0 64 3.9 ESE 7 11 4 6 - - 0.0
13/12:20pm 19.4 19.0 13.0 66 3.6 E 7 11 4 6 - - 0.0
13/12:10pm 18.4 17.8 12.3 67 3.4 E 7 13 4 7 - - 0.0
13/12:00pm 18.5 18.2 11.6 64 3.8 E 4 6 2 3 - - 0.0
13/11:50am 18.4 18.1 11.3 63 3.9 ESE 4 7 2 4 - - 0.0
13/11:40am 18.1 17.7 11.1 63 3.8 ESE 4 6 2 3 - - 0.0
13/11:30am 18.0 17.4 11.8 67 3.4 ESE 6 7 3 4 - - 0.0
13/11:20am 18.3 17.6 11.5 64 3.7 ESE 6 7 3 4 - - 0.0
13/11:10am 19.2 18.7 12.0 63 4.0 E 6 7 3 4 - - 0.0
13/11:00am 20.1 19.7 11.2 56 4.9 ENE 4 7 2 4 - - 0.0
13/10:50am 19.5 18.6 10.8 57 4.8 ENE 6 7 3 4 - - 0.0
13/10:40am 19.5 18.6 10.8 57 4.8 SE 6 7 3 4 - - 0.0
13/10:30am 19.1 18.2 10.7 58 4.6 ESE 6 9 3 5 - - 0.0
13/10:20am 18.9 18.4 11.9 64 3.9 SSE 6 7 3 4 - - 0.0

Other formats

Comma delimited format used in spreadsheet applications
http://www.bom.gov.au/fwo/IDN60801/IDN60801.99072.axf

JavaScript Object Notation format (JSON) in row-major order
http://www.bom.gov.au/fwo/IDN60801/IDN60801.99072.json

Data quality

Most of these data are generated automatically and are frequently updated. Quality checks on data are not normally performed. It is possible for incorrect values to appear. Refer to information at About Latest Weather Observations and please check the disclaimer before using these data.